sensor_id;sensor_type;location;lat;lon;timestamp;temperature;humidity
33831;DHT22;20137;48.834;8.732;2023-08-06T00:00:18;12.40;99.90
33831;DHT22;20137;48.834;8.732;2023-08-06T00:02:43;12.40;99.90
33831;DHT22;20137;48.834;8.732;2023-08-06T00:05:12;12.40;99.90
33831;DHT22;20137;48.834;8.732;2023-08-06T00:07:37;12.30;99.90
33831;DHT22;20137;48.834;8.732;2023-08-06T00:10:03;12.30;99.90
33831;DHT22;20137;48.834;8.732;2023-08-06T00:12:29;12.20;99.90
33831;DHT22;20137;48.834;8.732;2023-08-06T00:14:55;12.20;99.90
33831;DHT22;20137;48.834;8.732;2023-08-06T00:17:20;12.20;99.90
33831;DHT22;20137;48.834;8.732;2023-08-06T00:19:46;12.20;99.90
33831;DHT22;20137;48.834;8.732;2023-08-06T00:22:12;12.20;99.90
33831;DHT22;20137;48.834;8.732;2023-08-06T00:24:37;12.10;99.90
33831;DHT22;20137;48.834;8.732;2023-08-06T00:27:03;12.20;99.90
33831;DHT22;20137;48.834;8.732;2023-08-06T00:29:29;12.20;99.90
33831;DHT22;20137;48.834;8.732;2023-08-06T00:31:54;12.10;99.90
33831;DHT22;20137;48.834;8.732;2023-08-06T00:34:20;12.20;99.90
33831;DHT22;20137;48.834;8.732;2023-08-06T00:36:46;12.20;99.90
33831;DHT22;20137;48.834;8.732;2023-08-06T00:39:11;12.10;99.90
33831;DHT22;20137;48.834;8.732;2023-08-06T00:41:37;12.10;99.90
33831;DHT22;20137;48.834;8.732;2023-08-06T00:44:03;12.10;99.90
33831;DHT22;20137;48.834;8.732;2023-08-06T00:46:29;12.10;99.90
33831;DHT22;20137;48.834;8.732;2023-08-06T00:48:55;12.10;99.90
33831;DHT22;20137;48.834;8.732;2023-08-06T00:51:22;12.00;99.90
33831;DHT22;20137;48.834;8.732;2023-08-06T00:53:49;11.90;99.90
33831;DHT22;20137;48.834;8.732;2023-08-06T00:56:15;12.00;99.90
33831;DHT22;20137;48.834;8.732;2023-08-06T00:58:41;12.00;99.90
33831;DHT22;20137;48.834;8.732;2023-08-06T01:01:07;11.90;99.90
33831;DHT22;20137;48.834;8.732;2023-08-06T01:03:33;11.90;99.90
33831;DHT22;20137;48.834;8.732;2023-08-06T01:05:58;11.80;99.90
33831;DHT22;20137;48.834;8.732;2023-08-06T01:11:17;11.80;99.90
33831;DHT22;20137;48.834;8.732;2023-08-06T01:13:56;11.90;99.90
33831;DHT22;20137;48.834;8.732;2023-08-06T01:16:24;11.80;99.90
33831;DHT22;20137;48.834;8.732;2023-08-06T01:18:50;11.80;99.90
33831;DHT22;20137;48.834;8.732;2023-08-06T01:21:17;11.90;99.90
33831;DHT22;20137;48.834;8.732;2023-08-06T01:23:43;11.90;99.90
33831;DHT22;20137;48.834;8.732;2023-08-06T01:31:31;11.90;99.90
33831;DHT22;20137;48.834;8.732;2023-08-06T01:33:59;11.90;99.90
33831;DHT22;20137;48.834;8.732;2023-08-06T01:36:26;11.90;99.90
33831;DHT22;20137;48.834;8.732;2023-08-06T01:38:53;11.90;99.90
33831;DHT22;20137;48.834;8.732;2023-08-06T01:41:19;12.00;99.90
33831;DHT22;20137;48.834;8.732;2023-08-06T01:43:45;12.00;99.90
33831;DHT22;20137;48.834;8.732;2023-08-06T01:46:10;12.00;99.90
33831;DHT22;20137;48.834;8.732;2023-08-06T01:48:36;12.00;99.90
33831;DHT22;20137;48.834;8.732;2023-08-06T01:51:04;12.00;99.90
33831;DHT22;20137;48.834;8.732;2023-08-06T01:53:31;12.00;99.90
33831;DHT22;20137;48.834;8.732;2023-08-06T01:55:57;12.10;99.90
33831;DHT22;20137;48.834;8.732;2023-08-06T01:58:23;12.10;99.90
33831;DHT22;20137;48.834;8.732;2023-08-06T02:00:48;12.10;99.90
33831;DHT22;20137;48.834;8.732;2023-08-06T02:03:14;12.20;99.90
33831;DHT22;20137;48.834;8.732;2023-08-06T02:05:40;12.20;99.90
33831;DHT22;20137;48.834;8.732;2023-08-06T02:08:05;12.30;99.90
33831;DHT22;20137;48.834;8.732;2023-08-06T02:10:31;12.30;99.90
33831;DHT22;20137;48.834;8.732;2023-08-06T02:12:57;12.30;99.90
33831;DHT22;20137;48.834;8.732;2023-08-06T02:15:22;12.40;99.90
33831;DHT22;20137;48.834;8.732;2023-08-06T02:17:48;12.40;99.90
33831;DHT22;20137;48.834;8.732;2023-08-06T02:20:13;12.40;99.90
33831;DHT22;20137;48.834;8.732;2023-08-06T02:22:39;12.40;99.90
33831;DHT22;20137;48.834;8.732;2023-08-06T02:25:05;12.50;99.90
33831;DHT22;20137;48.834;8.732;2023-08-06T02:27:31;12.60;99.90
33831;DHT22;20137;48.834;8.732;2023-08-06T02:29:56;12.60;99.90
33831;DHT22;20137;48.834;8.732;2023-08-06T02:32:22;12.60;99.90
33831;DHT22;20137;48.834;8.732;2023-08-06T02:34:47;12.70;99.90
33831;DHT22;20137;48.834;8.732;2023-08-06T02:37:13;12.70;99.90
33831;DHT22;20137;48.834;8.732;2023-08-06T02:39:39;12.80;99.90
33831;DHT22;20137;48.834;8.732;2023-08-06T02:42:08;12.80;99.90
33831;DHT22;20137;48.834;8.732;2023-08-06T02:44:34;12.80;99.90
33831;DHT22;20137;48.834;8.732;2023-08-06T02:47:00;12.80;99.90
33831;DHT22;20137;48.834;8.732;2023-08-06T02:49:26;12.90;99.90
33831;DHT22;20137;48.834;8.732;2023-08-06T02:51:51;12.90;99.90
33831;DHT22;20137;48.834;8.732;2023-08-06T02:54:18;12.90;99.90
33831;DHT22;20137;48.834;8.732;2023-08-06T02:56:47;13.00;99.90
33831;DHT22;20137;48.834;8.732;2023-08-06T02:59:13;13.00;99.90
33831;DHT22;20137;48.834;8.732;2023-08-06T03:01:39;13.10;99.90
33831;DHT22;20137;48.834;8.732;2023-08-06T03:04:04;13.00;99.90
33831;DHT22;20137;48.834;8.732;2023-08-06T03:06:30;13.00;99.90
33831;DHT22;20137;48.834;8.732;2023-08-06T03:08:56;13.00;99.90
33831;DHT22;20137;48.834;8.732;2023-08-06T03:11:21;12.90;99.90
33831;DHT22;20137;48.834;8.732;2023-08-06T03:13:47;12.90;99.90
33831;DHT22;20137;48.834;8.732;2023-08-06T03:16:13;12.90;99.90
33831;DHT22;20137;48.834;8.732;2023-08-06T03:18:39;12.90;99.90
33831;DHT22;20137;48.834;8.732;2023-08-06T03:21:05;12.80;99.90
33831;DHT22;20137;48.834;8.732;2023-08-06T03:23:30;12.80;99.90
33831;DHT22;20137;48.834;8.732;2023-08-06T03:25:56;12.90;99.90
33831;DHT22;20137;48.834;8.732;2023-08-06T03:28:22;12.80;99.90
33831;DHT22;20137;48.834;8.732;2023-08-06T03:30:47;12.90;99.90
33831;DHT22;20137;48.834;8.732;2023-08-06T03:33:13;12.90;99.90
33831;DHT22;20137;48.834;8.732;2023-08-06T03:35:39;12.90;99.90
33831;DHT22;20137;48.834;8.732;2023-08-06T03:38:05;12.90;99.90
33831;DHT22;20137;48.834;8.732;2023-08-06T03:40:31;12.90;99.90
33831;DHT22;20137;48.834;8.732;2023-08-06T03:42:56;12.90;99.90
33831;DHT22;20137;48.834;8.732;2023-08-06T03:45:22;13.00;99.90
33831;DHT22;20137;48.834;8.732;2023-08-06T03:47:48;12.90;99.90
33831;DHT22;20137;48.834;8.732;2023-08-06T03:50:13;13.00;99.90
33831;DHT22;20137;48.834;8.732;2023-08-06T03:52:39;13.00;99.90
33831;DHT22;20137;48.834;8.732;2023-08-06T03:55:05;13.00;99.90
33831;DHT22;20137;48.834;8.732;2023-08-06T03:57:30;13.00;99.90
33831;DHT22;20137;48.834;8.732;2023-08-06T03:59:56;13.00;99.90
33831;DHT22;20137;48.834;8.732;2023-08-06T04:02:22;13.00;99.90
33831;DHT22;20137;48.834;8.732;2023-08-06T04:04:48;13.00;99.90
33831;DHT22;20137;48.834;8.732;2023-08-06T04:07:14;13.00;99.90
33831;DHT22;20137;48.834;8.732;2023-08-06T04:09:56;13.00;99.90
33831;DHT22;20137;48.834;8.732;2023-08-06T04:12:22;13.10;99.90
33831;DHT22;20137;48.834;8.732;2023-08-06T04:14:48;13.10;99.90
33831;DHT22;20137;48.834;8.732;2023-08-06T04:17:13;13.10;99.90
33831;DHT22;20137;48.834;8.732;2023-08-06T04:19:39;13.10;99.90
33831;DHT22;20137;48.834;8.732;2023-08-06T04:22:05;13.10;99.90
33831;DHT22;20137;48.834;8.732;2023-08-06T04:24:30;13.00;99.90
33831;DHT22;20137;48.834;8.732;2023-08-06T04:26:56;13.00;99.90
33831;DHT22;20137;48.834;8.732;2023-08-06T04:29:21;13.00;99.90
33831;DHT22;20137;48.834;8.732;2023-08-06T04:31:47;13.10;99.90
33831;DHT22;20137;48.834;8.732;2023-08-06T04:34:13;13.00;99.90
33831;DHT22;20137;48.834;8.732;2023-08-06T04:36:38;12.90;99.90
33831;DHT22;20137;48.834;8.732;2023-08-06T04:39:07;12.90;99.90
33831;DHT22;20137;48.834;8.732;2023-08-06T04:41:33;12.90;99.90
33831;DHT22;20137;48.834;8.732;2023-08-06T04:43:58;13.00;99.90
33831;DHT22;20137;48.834;8.732;2023-08-06T04:46:24;13.00;99.90
33831;DHT22;20137;48.834;8.732;2023-08-06T04:48:49;13.00;99.90
33831;DHT22;20137;48.834;8.732;2023-08-06T04:51:15;13.00;99.90
33831;DHT22;20137;48.834;8.732;2023-08-06T04:53:41;12.90;99.90
33831;DHT22;20137;48.834;8.732;2023-08-06T04:56:06;13.10;99.90
33831;DHT22;20137;48.834;8.732;2023-08-06T04:58:32;13.10;99.90
33831;DHT22;20137;48.834;8.732;2023-08-06T05:00:58;13.10;99.90
33831;DHT22;20137;48.834;8.732;2023-08-06T05:03:23;13.10;99.90
33831;DHT22;20137;48.834;8.732;2023-08-06T05:05:49;13.20;99.90
33831;DHT22;20137;48.834;8.732;2023-08-06T05:08:15;13.10;99.90
33831;DHT22;20137;48.834;8.732;2023-08-06T05:10:43;13.10;99.90
33831;DHT22;20137;48.834;8.732;2023-08-06T05:13:09;13.00;99.90
33831;DHT22;20137;48.834;8.732;2023-08-06T05:15:35;13.00;99.90
33831;DHT22;20137;48.834;8.732;2023-08-06T05:18:00;13.10;99.90
33831;DHT22;20137;48.834;8.732;2023-08-06T05:20:26;13.10;99.90
33831;DHT22;20137;48.834;8.732;2023-08-06T05:22:52;13.10;99.90
33831;DHT22;20137;48.834;8.732;2023-08-06T05:25:17;13.20;99.90
33831;DHT22;20137;48.834;8.732;2023-08-06T05:27:43;13.10;99.90
33831;DHT22;20137;48.834;8.732;2023-08-06T05:30:09;13.20;99.90
33831;DHT22;20137;48.834;8.732;2023-08-06T05:32:35;13.20;99.90
33831;DHT22;20137;48.834;8.732;2023-08-06T05:35:01;13.20;99.90
33831;DHT22;20137;48.834;8.732;2023-08-06T05:37:27;13.10;99.90
33831;DHT22;20137;48.834;8.732;2023-08-06T05:39:52;13.20;99.90
33831;DHT22;20137;48.834;8.732;2023-08-06T05:42:18;13.20;99.90
33831;DHT22;20137;48.834;8.732;2023-08-06T05:44:43;13.20;99.90
33831;DHT22;20137;48.834;8.732;2023-08-06T05:47:09;13.20;99.90
33831;DHT22;20137;48.834;8.732;2023-08-06T05:49:35;13.20;99.90
33831;DHT22;20137;48.834;8.732;2023-08-06T05:52:00;13.20;99.90
33831;DHT22;20137;48.834;8.732;2023-08-06T05:54:27;13.30;99.90
33831;DHT22;20137;48.834;8.732;2023-08-06T05:56:53;13.30;99.90
33831;DHT22;20137;48.834;8.732;2023-08-06T05:59:19;13.30;99.90
33831;DHT22;20137;48.834;8.732;2023-08-06T06:01:44;13.20;99.90
33831;DHT22;20137;48.834;8.732;2023-08-06T06:04:10;13.30;99.90
33831;DHT22;20137;48.834;8.732;2023-08-06T06:06:36;13.20;99.90
33831;DHT22;20137;48.834;8.732;2023-08-06T06:09:01;13.30;99.90
33831;DHT22;20137;48.834;8.732;2023-08-06T06:11:27;13.30;99.90
33831;DHT22;20137;48.834;8.732;2023-08-06T06:13:52;13.30;99.90
33831;DHT22;20137;48.834;8.732;2023-08-06T06:16:18;13.20;99.90
33831;DHT22;20137;48.834;8.732;2023-08-06T06:18:44;13.20;99.90
33831;DHT22;20137;48.834;8.732;2023-08-06T06:21:10;13.30;99.90
33831;DHT22;20137;48.834;8.732;2023-08-06T06:23:35;13.40;99.90
33831;DHT22;20137;48.834;8.732;2023-08-06T06:26:01;13.40;99.90
33831;DHT22;20137;48.834;8.732;2023-08-06T06:28:27;13.50;99.90
33831;DHT22;20137;48.834;8.732;2023-08-06T06:30:52;13.60;99.90
33831;DHT22;20137;48.834;8.732;2023-08-06T06:33:18;13.60;99.90
33831;DHT22;20137;48.834;8.732;2023-08-06T06:35:43;13.80;99.90
33831;DHT22;20137;48.834;8.732;2023-08-06T06:38:09;13.80;99.90
33831;DHT22;20137;48.834;8.732;2023-08-06T06:40:35;13.70;99.90
33831;DHT22;20137;48.834;8.732;2023-08-06T06:43:00;13.60;99.90
33831;DHT22;20137;48.834;8.732;2023-08-06T06:45:26;13.50;99.90
33831;DHT22;20137;48.834;8.732;2023-08-06T06:47:52;13.50;99.90
33831;DHT22;20137;48.834;8.732;2023-08-06T06:50:17;13.60;99.90
33831;DHT22;20137;48.834;8.732;2023-08-06T06:52:43;13.60;99.90
33831;DHT22;20137;48.834;8.732;2023-08-06T06:55:08;13.70;99.90
33831;DHT22;20137;48.834;8.732;2023-08-06T06:57:34;13.70;99.90
33831;DHT22;20137;48.834;8.732;2023-08-06T07:00:00;13.80;99.90
33831;DHT22;20137;48.834;8.732;2023-08-06T07:02:26;13.70;99.90
33831;DHT22;20137;48.834;8.732;2023-08-06T07:04:51;13.90;99.90
33831;DHT22;20137;48.834;8.732;2023-08-06T07:07:17;13.90;99.90
33831;DHT22;20137;48.834;8.732;2023-08-06T07:09:42;14.00;99.90
33831;DHT22;20137;48.834;8.732;2023-08-06T07:12:08;14.10;99.90
33831;DHT22;20137;48.834;8.732;2023-08-06T07:14:34;14.10;99.90
33831;DHT22;20137;48.834;8.732;2023-08-06T07:17:00;14.20;99.90
33831;DHT22;20137;48.834;8.732;2023-08-06T07:19:25;14.20;99.90
33831;DHT22;20137;48.834;8.732;2023-08-06T07:21:51;14.00;99.90
33831;DHT22;20137;48.834;8.732;2023-08-06T07:24:19;13.90;99.90
33831;DHT22;20137;48.834;8.732;2023-08-06T07:26:45;13.90;99.90
33831;DHT22;20137;48.834;8.732;2023-08-06T07:29:11;13.90;99.90
33831;DHT22;20137;48.834;8.732;2023-08-06T07:31:36;13.80;99.90
33831;DHT22;20137;48.834;8.732;2023-08-06T07:34:02;13.70;99.90
33831;DHT22;20137;48.834;8.732;2023-08-06T07:36:28;13.70;99.90
33831;DHT22;20137;48.834;8.732;2023-08-06T07:38:53;13.80;99.90
33831;DHT22;20137;48.834;8.732;2023-08-06T07:41:23;14.10;99.90
33831;DHT22;20137;48.834;8.732;2023-08-06T07:43:48;14.30;99.90
33831;DHT22;20137;48.834;8.732;2023-08-06T07:46:15;14.30;99.90
33831;DHT22;20137;48.834;8.732;2023-08-06T07:48:43;14.40;99.90
33831;DHT22;20137;48.834;8.732;2023-08-06T07:51:09;14.40;99.90
33831;DHT22;20137;48.834;8.732;2023-08-06T07:53:34;14.60;99.90
33831;DHT22;20137;48.834;8.732;2023-08-06T07:56:00;14.80;99.90
33831;DHT22;20137;48.834;8.732;2023-08-06T07:58:27;14.90;99.90
33831;DHT22;20137;48.834;8.732;2023-08-06T08:00:55;15.00;99.90
33831;DHT22;20137;48.834;8.732;2023-08-06T08:03:20;15.00;99.90
33831;DHT22;20137;48.834;8.732;2023-08-06T08:05:47;15.20;99.90
33831;DHT22;20137;48.834;8.732;2023-08-06T08:08:12;15.30;99.90
33831;DHT22;20137;48.834;8.732;2023-08-06T08:10:38;15.20;99.90
33831;DHT22;20137;48.834;8.732;2023-08-06T08:13:04;15.30;99.90
33831;DHT22;20137;48.834;8.732;2023-08-06T08:15:31;15.50;99.90
33831;DHT22;20137;48.834;8.732;2023-08-06T08:17:57;15.40;99.90
33831;DHT22;20137;48.834;8.732;2023-08-06T08:20:23;15.40;99.90
33831;DHT22;20137;48.834;8.732;2023-08-06T08:22:49;15.50;99.90
33831;DHT22;20137;48.834;8.732;2023-08-06T08:25:16;15.50;99.90
33831;DHT22;20137;48.834;8.732;2023-08-06T08:27:41;15.60;99.90
33831;DHT22;20137;48.834;8.732;2023-08-06T08:30:07;15.50;99.90
33831;DHT22;20137;48.834;8.732;2023-08-06T08:32:33;15.30;99.90
33831;DHT22;20137;48.834;8.732;2023-08-06T08:34:59;15.00;99.90
33831;DHT22;20137;48.834;8.732;2023-08-06T08:37:24;14.80;99.90
33831;DHT22;20137;48.834;8.732;2023-08-06T08:39:50;14.70;99.90
33831;DHT22;20137;48.834;8.732;2023-08-06T08:42:16;14.60;99.90
33831;DHT22;20137;48.834;8.732;2023-08-06T08:44:42;14.70;99.90
33831;DHT22;20137;48.834;8.732;2023-08-06T08:47:09;14.80;99.90
33831;DHT22;20137;48.834;8.732;2023-08-06T08:49:36;15.00;99.90
33831;DHT22;20137;48.834;8.732;2023-08-06T08:52:05;15.10;99.90
33831;DHT22;20137;48.834;8.732;2023-08-06T08:54:32;15.30;99.90
33831;DHT22;20137;48.834;8.732;2023-08-06T08:56:58;15.60;99.90
33831;DHT22;20137;48.834;8.732;2023-08-06T08:59:24;15.50;99.90
33831;DHT22;20137;48.834;8.732;2023-08-06T09:01:50;15.50;99.90
33831;DHT22;20137;48.834;8.732;2023-08-06T09:04:17;15.50;99.90
33831;DHT22;20137;48.834;8.732;2023-08-06T09:06:47;15.50;99.90
33831;DHT22;20137;48.834;8.732;2023-08-06T09:09:26;15.30;99.90
33831;DHT22;20137;48.834;8.732;2023-08-06T09:11:55;15.00;99.90
33831;DHT22;20137;48.834;8.732;2023-08-06T09:14:25;14.80;99.90
33831;DHT22;20137;48.834;8.732;2023-08-06T09:16:51;14.80;99.90
33831;DHT22;20137;48.834;8.732;2023-08-06T09:19:17;14.80;99.90
33831;DHT22;20137;48.834;8.732;2023-08-06T09:21:43;14.80;99.90
33831;DHT22;20137;48.834;8.732;2023-08-06T09:24:12;14.80;99.90
33831;DHT22;20137;48.834;8.732;2023-08-06T09:26:40;14.90;99.90
33831;DHT22;20137;48.834;8.732;2023-08-06T09:29:06;14.90;99.90
33831;DHT22;20137;48.834;8.732;2023-08-06T09:31:54;14.90;99.90
33831;DHT22;20137;48.834;8.732;2023-08-06T09:34:21;15.10;99.90
33831;DHT22;20137;48.834;8.732;2023-08-06T09:36:53;15.20;99.90
33831;DHT22;20137;48.834;8.732;2023-08-06T09:39:29;14.90;99.90
33831;DHT22;20137;48.834;8.732;2023-08-06T09:42:00;14.70;99.90
33831;DHT22;20137;48.834;8.732;2023-08-06T09:44:28;14.70;99.90
33831;DHT22;20137;48.834;8.732;2023-08-06T09:46:56;14.70;99.90
33831;DHT22;20137;48.834;8.732;2023-08-06T09:49:25;14.90;99.90
33831;DHT22;20137;48.834;8.732;2023-08-06T09:51:52;15.00;99.90
33831;DHT22;20137;48.834;8.732;2023-08-06T09:54:22;15.20;99.90
33831;DHT22;20137;48.834;8.732;2023-08-06T09:56:48;15.00;99.90
33831;DHT22;20137;48.834;8.732;2023-08-06T09:59:14;14.90;99.90
33831;DHT22;20137;48.834;8.732;2023-08-06T10:01:41;14.70;99.90
33831;DHT22;20137;48.834;8.732;2023-08-06T10:04:07;14.60;99.90
33831;DHT22;20137;48.834;8.732;2023-08-06T10:06:34;14.30;99.90
33831;DHT22;20137;48.834;8.732;2023-08-06T10:09:03;14.30;99.90
33831;DHT22;20137;48.834;8.732;2023-08-06T10:11:30;14.40;99.90
33831;DHT22;20137;48.834;8.732;2023-08-06T10:14:23;14.60;99.90
33831;DHT22;20137;48.834;8.732;2023-08-06T10:16:50;14.70;99.90
33831;DHT22;20137;48.834;8.732;2023-08-06T10:19:20;15.10;99.90
33831;DHT22;20137;48.834;8.732;2023-08-06T10:22:21;15.10;99.90
33831;DHT22;20137;48.834;8.732;2023-08-06T10:24:58;15.00;99.90
33831;DHT22;20137;48.834;8.732;2023-08-06T10:27:34;15.00;99.90
33831;DHT22;20137;48.834;8.732;2023-08-06T10:32:49;14.50;99.90
33831;DHT22;20137;48.834;8.732;2023-08-06T10:35:36;13.90;99.90
33831;DHT22;20137;48.834;8.732;2023-08-06T10:38:12;13.90;99.90
33831;DHT22;20137;48.834;8.732;2023-08-06T10:43:34;13.60;99.90
33831;DHT22;20137;48.834;8.732;2023-08-06T10:46:09;13.40;99.90
33831;DHT22;20137;48.834;8.732;2023-08-06T10:48:37;13.30;99.90
33831;DHT22;20137;48.834;8.732;2023-08-06T10:51:03;13.10;99.90
33831;DHT22;20137;48.834;8.732;2023-08-06T10:53:30;13.10;99.90
33831;DHT22;20137;48.834;8.732;2023-08-06T10:55:56;13.10;99.90
33831;DHT22;20137;48.834;8.732;2023-08-06T10:58:22;13.20;99.90
33831;DHT22;20137;48.834;8.732;2023-08-06T11:00:48;13.10;99.90
33831;DHT22;20137;48.834;8.732;2023-08-06T11:03:14;13.20;99.90
33831;DHT22;20137;48.834;8.732;2023-08-06T11:05:40;13.20;99.90
33831;DHT22;20137;48.834;8.732;2023-08-06T11:08:06;13.40;99.90
33831;DHT22;20137;48.834;8.732;2023-08-06T11:10:35;13.60;99.90
33831;DHT22;20137;48.834;8.732;2023-08-06T11:13:01;13.40;99.90
33831;DHT22;20137;48.834;8.732;2023-08-06T11:15:28;13.10;99.90
33831;DHT22;20137;48.834;8.732;2023-08-06T11:17:54;13.00;99.90
33831;DHT22;20137;48.834;8.732;2023-08-06T11:20:20;12.90;99.90
33831;DHT22;20137;48.834;8.732;2023-08-06T11:22:47;12.70;99.90
33831;DHT22;20137;48.834;8.732;2023-08-06T11:25:13;12.70;99.90
33831;DHT22;20137;48.834;8.732;2023-08-06T11:27:39;12.80;99.90
33831;DHT22;20137;48.834;8.732;2023-08-06T11:30:05;12.60;99.90
33831;DHT22;20137;48.834;8.732;2023-08-06T11:32:30;12.70;99.90
33831;DHT22;20137;48.834;8.732;2023-08-06T11:34:56;12.70;99.90
33831;DHT22;20137;48.834;8.732;2023-08-06T11:37:22;12.70;99.90
33831;DHT22;20137;48.834;8.732;2023-08-06T11:39:50;12.60;99.90
33831;DHT22;20137;48.834;8.732;2023-08-06T11:42:16;12.60;99.90
33831;DHT22;20137;48.834;8.732;2023-08-06T11:44:42;12.60;99.90
33831;DHT22;20137;48.834;8.732;2023-08-06T11:47:16;12.50;99.90
33831;DHT22;20137;48.834;8.732;2023-08-06T11:49:47;12.40;99.90
33831;DHT22;20137;48.834;8.732;2023-08-06T11:54:40;12.30;99.90
33831;DHT22;20137;48.834;8.732;2023-08-06T11:57:06;12.40;99.90
33831;DHT22;20137;48.834;8.732;2023-08-06T11:59:32;12.40;99.90
33831;DHT22;20137;48.834;8.732;2023-08-06T12:01:59;12.40;99.90
33831;DHT22;20137;48.834;8.732;2023-08-06T12:04:25;12.50;99.90
33831;DHT22;20137;48.834;8.732;2023-08-06T12:06:51;12.50;99.90
33831;DHT22;20137;48.834;8.732;2023-08-06T12:09:17;12.50;99.90
33831;DHT22;20137;48.834;8.732;2023-08-06T12:11:42;12.60;99.90
33831;DHT22;20137;48.834;8.732;2023-08-06T12:14:08;12.60;99.90
33831;DHT22;20137;48.834;8.732;2023-08-06T12:16:33;12.70;99.90
33831;DHT22;20137;48.834;8.732;2023-08-06T12:18:59;12.70;99.90
33831;DHT22;20137;48.834;8.732;2023-08-06T12:21:25;13.00;99.90
33831;DHT22;20137;48.834;8.732;2023-08-06T12:23:51;13.40;99.90
33831;DHT22;20137;48.834;8.732;2023-08-06T12:26:16;13.60;99.90
33831;DHT22;20137;48.834;8.732;2023-08-06T12:28:42;13.80;99.90
33831;DHT22;20137;48.834;8.732;2023-08-06T12:31:08;13.90;99.90
33831;DHT22;20137;48.834;8.732;2023-08-06T12:33:33;14.00;99.90
33831;DHT22;20137;48.834;8.732;2023-08-06T12:36:00;14.10;99.90
33831;DHT22;20137;48.834;8.732;2023-08-06T12:38:26;14.20;99.90
33831;DHT22;20137;48.834;8.732;2023-08-06T12:40:52;14.20;99.90
33831;DHT22;20137;48.834;8.732;2023-08-06T12:43:17;14.30;99.90
33831;DHT22;20137;48.834;8.732;2023-08-06T12:45:43;14.50;99.90
33831;DHT22;20137;48.834;8.732;2023-08-06T12:48:08;14.70;99.90
33831;DHT22;20137;48.834;8.732;2023-08-06T12:50:35;14.80;99.90
33831;DHT22;20137;48.834;8.732;2023-08-06T12:53:00;14.80;99.90
33831;DHT22;20137;48.834;8.732;2023-08-06T12:55:26;14.80;99.90
33831;DHT22;20137;48.834;8.732;2023-08-06T12:57:52;14.90;99.90
33831;DHT22;20137;48.834;8.732;2023-08-06T13:00:18;15.00;99.90
33831;DHT22;20137;48.834;8.732;2023-08-06T13:02:43;15.00;99.90
33831;DHT22;20137;48.834;8.732;2023-08-06T13:05:09;14.90;99.90
33831;DHT22;20137;48.834;8.732;2023-08-06T13:07:35;14.80;99.90
33831;DHT22;20137;48.834;8.732;2023-08-06T13:10:00;14.50;99.90
33831;DHT22;20137;48.834;8.732;2023-08-06T13:12:26;14.40;99.90
33831;DHT22;20137;48.834;8.732;2023-08-06T13:14:52;14.30;99.90
33831;DHT22;20137;48.834;8.732;2023-08-06T13:17:18;14.20;99.90
33831;DHT22;20137;48.834;8.732;2023-08-06T13:19:44;14.00;99.90
33831;DHT22;20137;48.834;8.732;2023-08-06T13:22:10;13.90;99.90
33831;DHT22;20137;48.834;8.732;2023-08-06T13:24:35;13.70;99.90
33831;DHT22;20137;48.834;8.732;2023-08-06T13:27:04;13.70;99.90
33831;DHT22;20137;48.834;8.732;2023-08-06T13:29:30;13.80;99.90
33831;DHT22;20137;48.834;8.732;2023-08-06T13:31:56;13.90;99.90
33831;DHT22;20137;48.834;8.732;2023-08-06T13:34:21;14.00;99.90
33831;DHT22;20137;48.834;8.732;2023-08-06T13:36:47;14.00;99.90
33831;DHT22;20137;48.834;8.732;2023-08-06T13:39:13;14.10;99.90
33831;DHT22;20137;48.834;8.732;2023-08-06T13:41:41;14.10;99.90
33831;DHT22;20137;48.834;8.732;2023-08-06T13:44:07;14.00;99.90
33831;DHT22;20137;48.834;8.732;2023-08-06T13:46:32;14.10;99.90
33831;DHT22;20137;48.834;8.732;2023-08-06T13:48:58;14.10;99.90
33831;DHT22;20137;48.834;8.732;2023-08-06T13:51:24;13.90;99.90
33831;DHT22;20137;48.834;8.732;2023-08-06T13:53:49;14.00;99.90
33831;DHT22;20137;48.834;8.732;2023-08-06T13:56:17;14.30;99.90
33831;DHT22;20137;48.834;8.732;2023-08-06T13:58:43;14.40;99.90
33831;DHT22;20137;48.834;8.732;2023-08-06T14:01:10;14.40;99.90
33831;DHT22;20137;48.834;8.732;2023-08-06T14:03:36;14.70;99.90
33831;DHT22;20137;48.834;8.732;2023-08-06T14:06:02;14.60;99.90
33831;DHT22;20137;48.834;8.732;2023-08-06T14:08:27;14.60;99.90
33831;DHT22;20137;48.834;8.732;2023-08-06T14:10:53;14.80;99.90
33831;DHT22;20137;48.834;8.732;2023-08-06T14:13:22;14.80;99.90
33831;DHT22;20137;48.834;8.732;2023-08-06T14:15:47;15.00;99.90
33831;DHT22;20137;48.834;8.732;2023-08-06T14:18:14;15.10;99.90
33831;DHT22;20137;48.834;8.732;2023-08-06T14:20:40;15.20;99.90
33831;DHT22;20137;48.834;8.732;2023-08-06T14:23:06;14.80;99.90
33831;DHT22;20137;48.834;8.732;2023-08-06T14:25:32;14.40;99.90
33831;DHT22;20137;48.834;8.732;2023-08-06T14:27:58;14.10;99.90
33831;DHT22;20137;48.834;8.732;2023-08-06T14:30:23;13.90;99.90
33831;DHT22;20137;48.834;8.732;2023-08-06T14:32:49;14.00;99.90
33831;DHT22;20137;48.834;8.732;2023-08-06T14:35:15;14.20;99.90
33831;DHT22;20137;48.834;8.732;2023-08-06T14:37:40;14.30;99.90
33831;DHT22;20137;48.834;8.732;2023-08-06T14:40:07;14.10;99.90
33831;DHT22;20137;48.834;8.732;2023-08-06T14:42:33;13.80;99.90
33831;DHT22;20137;48.834;8.732;2023-08-06T14:44:59;14.00;99.90
33831;DHT22;20137;48.834;8.732;2023-08-06T14:47:25;14.30;99.90
33831;DHT22;20137;48.834;8.732;2023-08-06T14:49:50;14.80;99.90
33831;DHT22;20137;48.834;8.732;2023-08-06T14:52:16;15.10;99.90
33831;DHT22;20137;48.834;8.732;2023-08-06T14:54:42;15.50;99.90
33831;DHT22;20137;48.834;8.732;2023-08-06T14:57:09;15.60;99.90
33831;DHT22;20137;48.834;8.732;2023-08-06T14:59:35;15.70;99.90
33831;DHT22;20137;48.834;8.732;2023-08-06T15:02:01;15.40;99.90
33831;DHT22;20137;48.834;8.732;2023-08-06T15:04:29;14.90;99.90
33831;DHT22;20137;48.834;8.732;2023-08-06T15:06:55;14.90;99.90
33831;DHT22;20137;48.834;8.732;2023-08-06T15:09:21;15.20;99.90
33831;DHT22;20137;48.834;8.732;2023-08-06T15:11:47;15.60;99.90
33831;DHT22;20137;48.834;8.732;2023-08-06T15:14:13;15.80;99.90
33831;DHT22;20137;48.834;8.732;2023-08-06T15:16:40;15.80;99.90
33831;DHT22;20137;48.834;8.732;2023-08-06T15:19:06;15.60;99.90
33831;DHT22;20137;48.834;8.732;2023-08-06T15:21:32;15.60;99.90
33831;DHT22;20137;48.834;8.732;2023-08-06T15:23:57;15.40;99.90
33831;DHT22;20137;48.834;8.732;2023-08-06T15:26:23;15.20;99.90
33831;DHT22;20137;48.834;8.732;2023-08-06T15:28:49;14.90;99.90
33831;DHT22;20137;48.834;8.732;2023-08-06T15:31:16;14.50;99.90
33831;DHT22;20137;48.834;8.732;2023-08-06T15:33:44;14.40;99.90
33831;DHT22;20137;48.834;8.732;2023-08-06T15:36:10;14.30;99.90
33831;DHT22;20137;48.834;8.732;2023-08-06T15:38:36;14.10;99.90
33831;DHT22;20137;48.834;8.732;2023-08-06T15:41:01;13.80;99.90